Wiergate, Texas
Current Conditions -  °F | °C
As of 7:15 AM on Friday 28 Nov 2014 (Local Time) from KJAS Reporting Station
Clear Clear  
Wind Chill: 35°   Ceiling: Unl
Heat Index: 35°   Visibility: 10mi
Dew Point: 33°   Wind: 0mph
Humidity: 94%   Direction: NA
Pressure: 30.41"   Gusts: NA
Location:  31°N, 93.71°W
Report Text: KJAS 281315Z AUTO 00000KT 10SM CLR 02/01 A3041 RMK AO2 T00150007
Loading
Personal Weather Stations






























Interactive Weather Map New forecast layout! Learn more

10-Day Weather Forecast

Advertisements
Track Severe Weather on mobile